Time;durP1;ratioP1;P1;durP2;ratioP2;P2;SDS_P1;SDS_P2;PMS_P1;PMS_P2;Temp;Humidity;BMP_temperature;BMP_pressure;BME280_temperature;BME280_humidity;BME280_pressure;Samples;Min_cycle;Max_cycle;Signal;HPM_P1;HPM_P2
2023/09/06 00:01:40;;;;;;;;;;;25.00;79.50;;;;;;4171642;28;20072;-38
2023/09/06 00:04:21;;;;;;;9.93;9.02;;;25.00;79.50;;;;;;4178546;28;19973;-38
2023/09/06 00:07:05;;;;;;;10.52;9.52;;;24.90;79.50;;;;;;4169312;28;20048;-38
2023/09/06 00:09:46;;;;;;;12.77;8.98;;;24.90;79.50;;;;;;4168009;28;20060;-48
2023/09/06 00:12:27;;;;;;;;;;;24.90;79.40;;;;;;4187870;28;20063;-49
2023/09/06 00:15:09;;;;;;;10.48;9.48;;;24.90;79.30;;;;;;4187539;28;19928;-46
2023/09/06 00:17:50;;;;;;;9.70;8.80;;;24.90;79.40;;;;;;4187088;28;20072;-51
2023/09/06 00:20:31;;;;;;;;;;;24.90;79.20;;;;;;4187361;28;20094;-47
2023/09/06 00:23:14;;;;;;;12.05;10.60;;;24.90;79.10;;;;;;4187366;28;19966;-39
2023/09/06 00:25:56;;;;;;;11.00;9.90;;;24.90;79.00;;;;;;4170647;28;20067;-39
2023/09/06 00:28:38;;;;;;;11.38;10.18;;;24.90;78.50;;;;;;4183122;28;20739;-40
2023/09/06 00:31:19;;;;;;;10.43;9.52;;;24.90;78.30;;;;;;4186815;28;20051;-39
2023/09/06 00:34:00;;;;;;;;;;;24.80;78.40;;;;;;4187093;28;20056;-39
2023/09/06 00:36:41;;;;;;;11.02;9.95;;;24.80;78.60;;;;;;4186126;28;20386;-37
2023/09/06 00:39:28;;;;;;;11.10;10.13;;;24.80;78.80;;;;;;4178870;28;20064;-38
2023/09/06 00:42:09;;;;;;;11.82;10.63;;;24.80;78.50;;;;;;4169216;28;20060;-38
2023/09/06 00:44:50;;;;;;;;;;;24.80;78.50;;;;;;4181716;28;20048;-37
2023/09/06 00:47:31;;;;;;;11.60;10.43;;;24.70;78.60;;;;;;4179609;28;19931;-38
2023/09/06 00:50:14;;;;;;;12.07;10.88;;;24.70;78.90;;;;;;4176944;28;20155;-37
2023/09/06 00:52:56;;;;;;;12.55;11.43;;;24.70;78.80;;;;;;4185393;28;20071;-45
2023/09/06 00:55:41;;;;;;;12.65;11.52;;;24.70;78.80;;;;;;4185195;28;20067;-46
2023/09/06 00:58:22;;;;;;;12.55;11.32;;;24.70;78.60;;;;;;4185219;28;20055;-45
2023/09/06 01:01:04;;;;;;;12.52;11.07;;;24.70;78.40;;;;;;4187176;28;20075;-45
2023/09/06 01:03:45;;;;;;;12.38;11.27;;;24.70;78.20;;;;;;4186700;28;20486;-48
2023/09/06 01:06:30;;;;;;;13.40;11.32;;;24.70;78.30;;;;;;4185929;28;20058;-46
2023/09/06 01:09:12;;;;;;;12.02;10.95;;;24.70;78.50;;;;;;4186960;28;20123;-50
2023/09/06 01:11:55;;;;;;;;;;;24.70;78.60;;;;;;4186734;28;20060;-49
2023/09/06 01:14:36;;;;;;;12.40;11.07;;;24.70;78.70;;;;;;4185347;28;20605;-47
2023/09/06 01:17:20;;;;;;;12.75;10.30;;;24.60;78.90;;;;;;4186609;28;20051;-45
2023/09/06 01:20:15;;;;;;;12.35;11.18;;;24.60;79.70;;;;;;4184811;28;20495;-38
2023/09/06 01:23:07;;;;;;;11.55;10.55;;;24.60;78.70;;;;;;4185851;28;20482;-46
2023/09/06 01:25:50;;;;;;;11.07;10.07;;;24.60;78.70;;;;;;4188525;28;20055;-44
2023/09/06 01:28:32;;;;;;;11.32;10.23;;;24.60;78.70;;;;;;4189652;28;20129;-43
2023/09/06 01:31:13;;;;;;;12.07;10.88;;;24.60;78.70;;;;;;4188498;28;20044;-45
2023/09/06 01:33:54;;;;;;;12.25;11.20;;;24.60;78.60;;;;;;4189540;28;20175;-45
2023/09/06 01:36:35;;;;;;;;;;;24.60;78.50;;;;;;4189956;28;20059;-45
2023/09/06 01:39:15;;;;;;;13.70;12.40;;;24.60;78.50;;;;;;4189779;28;19927;-48
2023/09/06 01:41:58;;;;;;;13.05;11.65;;;24.50;78.70;;;;;;4189441;28;20741;-45
2023/09/06 01:44:39;;;;;;;11.88;10.85;;;24.50;78.40;;;;;;4189494;28;20125;-49
2023/09/06 01:47:20;;;;;;;11.98;10.77;;;24.50;78.20;;;;;;4187483;28;20054;-44
2023/09/06 01:50:01;;;;;;;12.55;11.45;;;24.50;78.10;;;;;;4189457;28;20075;-48
2023/09/06 01:52:42;;;;;;;12.20;11.10;;;24.50;78.20;;;;;;4189527;28;20544;-50
2023/09/06 01:55:23;;;;;;;;;;;24.50;78.20;;;;;;4189542;28;20194;-48
2023/09/06 01:58:05;;;;;;;13.73;10.90;;;24.50;78.40;;;;;;4187685;28;19932;-46
2023/09/06 02:00:47;;;;;;;11.63;10.55;;;24.50;78.70;;;;;;4185387;28;20055;-46
2023/09/06 02:03:28;;;;;;;11.10;10.10;;;24.50;78.50;;;;;;4189415;28;20052;-46
2023/09/06 02:06:09;;;;;;;10.73;9.82;;;24.50;78.40;;;;;;4189257;28;20129;-44
2023/09/06 02:08:50;;;;;;;11.63;10.55;;;24.50;78.40;;;;;;4187183;28;20054;-37
2023/09/06 02:11:34;;;;;;;11.27;10.18;;;24.50;78.40;;;;;;4188055;28;20055;-37
2023/09/06 02:14:16;;;;;;;10.65;9.70;;;24.50;78.30;;;;;;4188602;28;20050;-44
2023/09/06 02:16:57;;;;;;;10.57;9.60;;;24.40;78.10;;;;;;4187368;28;20059;-46
2023/09/06 02:19:38;;;;;;;11.23;10.13;;;24.40;78.20;;;;;;4188125;28;20515;-46
2023/09/06 02:22:19;;;;;;;10.65;9.75;;;24.40;78.40;;;;;;4189557;28;20507;-46
2023/09/06 02:25:01;;;;;;;10.88;9.77;;;24.40;78.30;;;;;;4188084;28;20079;-46
2023/09/06 02:27:41;;;;;;;11.20;10.10;;;24.40;78.10;;;;;;4188996;28;20059;-47
2023/09/06 02:30:24;;;;;;;10.65;9.50;;;24.40;77.80;;;;;;4188113;28;20071;-47
2023/09/06 02:33:07;;;;;;;9.70;8.80;;;24.40;77.60;;;;;;4187647;28;20051;-45
2023/09/06 02:35:49;;;;;;;10.70;9.60;;;24.40;77.60;;;;;;4186361;28;20051;-49
2023/09/06 02:38:30;;;;;;;10.18;9.27;;;24.40;77.60;;;;;;4186258;28;20097;-49
2023/09/06 02:41:11;;;;;;;;;;;24.30;77.70;;;;;;4187152;28;20119;-46
2023/09/06 02:43:52;;;;;;;10.30;9.40;;;24.30;77.90;;;;;;4188810;28;20002;-47
2023/09/06 02:46:34;;;;;;;;;;;24.30;78.20;;;;;;4189836;28;20055;-43
2023/09/06 02:49:17;;;;;;;10.55;9.65;;;24.30;78.10;;;;;;4172102;28;19928;-44
2023/09/06 02:51:58;;;;;;;9.93;9.02;;;24.30;78.40;;;;;;4171237;28;20138;-44
2023/09/06 02:54:42;;;;;;;;;;;24.30;78.20;;;;;;4172894;28;20081;-48
2023/09/06 02:57:23;;;;;;;10.20;8.50;;;24.30;78.20;;;;;;4179049;28;19932;-47
2023/09/06 03:00:17;;;;;;;9.57;8.68;;;24.20;78.40;;;;;;4187966;28;20129;-48
2023/09/06 03:03:04;;;;;;;9.32;8.35;;;24.20;78.00;;;;;;4187397;28;20083;-45
2023/09/06 03:05:46;;;;;;;8.93;7.95;;;24.20;77.80;;;;;;4187137;28;20190;-48
2023/09/06 03:08:30;;;;;;;9.40;8.57;;;24.20;77.70;;;;;;4186384;28;20070;-48
2023/09/06 03:11:14;;;;;;;11.98;8.95;;;24.20;77.70;;;;;;4187158;28;20052;-45
2023/09/06 03:14:02;;;;;;;9.35;8.45;;;24.20;77.50;;;;;;4186817;28;20051;-50
2023/09/06 03:16:43;;;;;;;8.18;7.57;;;24.20;77.40;;;;;;4186915;28;20055;-47
2023/09/06 03:19:27;;;;;;;8.65;7.88;;;24.20;77.30;;;;;;4181427;28;20097;-45
2023/09/06 03:22:10;;;;;;;8.93;8.13;;;24.20;76.90;;;;;;4170611;28;20048;-47
2023/09/06 03:24:55;;;;;;;11.20;9.32;;;24.20;76.90;;;;;;4183796;28;20453;-45
2023/09/06 03:27:36;;;;;;;9.52;7.82;;;24.10;76.70;;;;;;4185425;28;20052;-44
2023/09/06 03:30:19;;;;;;;8.43;7.70;;;24.10;76.60;;;;;;4184833;28;20584;-45
2023/09/06 03:33:05;;;;;;;8.45;7.65;;;24.10;76.40;;;;;;4186585;28;20055;-45
2023/09/06 03:35:48;;;;;;;13.77;8.07;;;24.10;76.70;;;;;;4185012;28;20593;-47
2023/09/06 03:38:31;;;;;;;9.35;8.43;;;24.10;76.90;;;;;;4185761;28;20051;-46
2023/09/06 03:41:12;;;;;;;8.68;7.97;;;24.10;77.40;;;;;;4186246;28;20056;-44
2023/09/06 03:43:53;;;;;;;9.10;8.30;;;24.10;76.90;;;;;;4186304;28;20174;-44
2023/09/06 03:46:35;;;;;;;10.35;7.78;;;24.10;76.70;;;;;;4187820;28;20068;-45
2023/09/06 03:49:16;;;;;;;8.65;7.85;;;24.10;76.80;;;;;;4186541;28;20047;-47
2023/09/06 03:51:58;;;;;;;9.00;8.00;;;24.00;76.90;;;;;;4197793;28;20502;-46
2023/09/06 03:54:40;;;;;;;9.43;7.63;;;24.00;77.10;;;;;;4186416;28;20396;-46
2023/09/06 03:57:22;;;;;;;9.10;8.30;;;24.00;77.00;;;;;;4180749;28;20138;-48
2023/09/06 04:00:19;;;;;;;8.68;7.85;;;24.00;76.90;;;;;;4185636;28;20234;-46
2023/09/06 04:03:03;;;;;;;10.02;7.45;;;24.00;76.90;;;;;;4186127;28;20050;-45
2023/09/06 04:05:47;;;;;;;7.63;7.03;;;23.90;76.90;;;;;;4174333;28;20043;-48
2023/09/06 04:08:30;;;;;;;9.07;7.68;;;23.90;76.80;;;;;;4156145;28;20056;-48
2023/09/06 04:11:13;;;;;;;9.07;8.00;;;23.90;76.80;;;;;;4169992;28;20126;-46
2023/09/06 04:13:55;;;;;;;9.30;7.93;;;23.90;77.00;;;;;;4169616;28;20052;-46
2023/09/06 04:16:39;;;;;;;8.40;7.55;;;23.90;77.00;;;;;;4169511;28;20503;-46
2023/09/06 04:19:21;;;;;;;9.88;7.55;;;23.90;77.20;;;;;;4181133;28;20116;-46
2023/09/06 04:22:02;;;;;;;8.43;7.60;;;23.90;77.20;;;;;;4180874;28;20052;-49
2023/09/06 04:24:50;;;;;;;8.30;7.55;;;23.90;77.30;;;;;;4181216;28;20511;-45
2023/09/06 04:27:31;;;;;;;7.80;7.10;;;23.80;77.20;;;;;;4169181;28;20048;-37
2023/09/06 04:30:14;;;;;;;;;;;23.80;77.20;;;;;;4171056;28;20098;-37
2023/09/06 04:32:58;;;;;;;7.80;7.18;;;23.90;77.40;;;;;;4181505;28;19935;-37
2023/09/06 04:35:42;;;;;;;7.75;6.95;;;23.80;77.50;;;;;;4183737;28;20059;-37
2023/09/06 04:38:24;;;;;;;8.10;7.50;;;23.80;77.40;;;;;;4174553;28;20494;-37
2023/09/06 04:41:12;;;;;;;7.30;6.60;;;23.80;77.60;;;;;;4197947;28;20055;-38
2023/09/06 04:43:59;;;;;;;7.18;6.47;;;23.80;77.50;;;;;;4185866;28;20186;-38
2023/09/06 04:46:42;;;;;;;6.65;6.07;;;23.80;77.30;;;;;;4180478;28;20508;-39
2023/09/06 04:49:24;;;;;;;8.73;6.47;;;23.70;77.10;;;;;;4169084;28;20138;-39
2023/09/06 04:52:06;;;;;;;7.75;6.70;;;23.80;77.30;;;;;;4169826;28;20064;-39
2023/09/06 04:54:47;;;;;;;7.40;6.65;;;23.80;77.90;;;;;;4173585;28;20068;-38
2023/09/06 04:57:29;;;;;;;;;;;23.70;77.60;;;;;;4185755;28;20086;-39
2023/09/06 05:00:16;;;;;;;6.75;6.15;;;23.70;77.70;;;;;;4187063;28;20268;-39
2023/09/06 05:02:58;;;;;;;6.25;5.75;;;23.70;78.10;;;;;;4188835;28;20205;-38
2023/09/06 05:05:40;;;;;;;7.85;6.38;;;23.70;77.80;;;;;;4189844;28;20047;-38
2023/09/06 05:08:22;;;;;;;7.30;6.65;;;23.70;77.70;;;;;;4183721;28;20059;-39
2023/09/06 05:11:03;;;;;;;10.45;6.90;;;23.70;77.60;;;;;;4188636;28;20201;-39
2023/09/06 05:13:48;;;;;;;10.25;6.32;;;23.80;77.50;;;;;;4182958;28;20055;-39
2023/09/06 05:16:31;;;;;;;9.73;6.80;;;23.70;77.30;;;;;;4172542;28;20566;-38
2023/09/06 05:19:13;;;;;;;11.43;6.40;;;23.70;77.30;;;;;;4184727;28;20101;-39
2023/09/06 05:21:53;;;;;;;11.80;6.55;;;23.70;77.20;;;;;;4189156;28;20120;-38
2023/09/06 05:24:36;;;;;;;9.88;6.63;;;23.70;77.10;;;;;;4187471;28;20059;-38
2023/09/06 05:27:18;;;;;;;10.70;6.78;;;23.70;77.10;;;;;;4188978;28;20115;-38
2023/09/06 05:30:00;;;;;;;;;;;23.60;77.00;;;;;;4189501;28;20067;-38
2023/09/06 05:32:41;;;;;;;6.95;6.22;;;23.60;77.20;;;;;;4175927;28;20290;-38
2023/09/06 05:35:22;;;;;;;;;;;23.60;77.70;;;;;;4188350;28;20178;-38
2023/09/06 05:38:04;;;;;;;6.43;5.57;;;23.60;77.70;;;;;;4188211;28;20437;-40
2023/09/06 05:40:47;;;;;;;8.38;6.57;;;23.60;77.90;;;;;;4188692;28;20055;-38
2023/09/06 05:43:34;;;;;;;9.75;6.43;;;23.60;77.60;;;;;;4188813;28;20458;-39
2023/09/06 05:46:17;;;;;;;9.02;6.22;;;23.60;77.50;;;;;;4188211;28;20517;-38
2023/09/06 05:49:14;;;;;;;6.90;6.20;;;23.60;77.40;;;;;;4186974;28;20056;-38
2023/09/06 05:51:58;;;;;;;6.10;5.25;;;23.60;77.40;;;;;;4187097;28;20526;-38
2023/09/06 05:54:39;;;;;;;6.50;5.78;;;23.60;77.30;;;;;;4187805;28;20055;-38
2023/09/06 05:57:19;;;;;;;8.43;6.00;;;23.60;77.30;;;;;;4187794;28;20052;-38
2023/09/06 06:00:01;;;;;;;6.13;5.63;;;23.60;77.40;;;;;;4176862;28;20052;-38
2023/09/06 06:02:55;;;;;;;9.50;5.82;;;23.60;77.30;;;;;;4173134;28;20182;-39
2023/09/06 06:05:36;;;;;;;8.20;6.15;;;23.50;77.30;;;;;;4170868;28;20055;-38
2023/09/06 06:08:17;;;;;;;5.78;5.30;;;23.60;77.30;;;;;;4189060;28;20125;-38
2023/09/06 06:10:58;;;;;;;6.15;5.68;;;23.50;77.30;;;;;;4170293;28;20087;-38
2023/09/06 06:13:39;;;;;;;6.72;5.60;;;23.50;77.40;;;;;;4172219;28;20063;-38
2023/09/06 06:16:20;;;;;;;7.22;6.15;;;23.50;77.50;;;;;;4172455;28;20068;-48
2023/09/06 06:19:03;;;;;;;7.10;5.70;;;23.50;77.60;;;;;;4177351;28;20052;-49
2023/09/06 06:21:45;;;;;;;10.07;6.53;;;23.50;77.80;;;;;;4188778;28;20044;-47
2023/09/06 06:24:26;;;;;;;7.00;6.30;;;23.50;78.00;;;;;;4189117;28;20435;-44
2023/09/06 06:27:07;;;;;;;6.45;5.78;;;23.50;78.10;;;;;;4188397;28;20059;-46
2023/09/06 06:29:49;;;;;;;6.55;5.95;;;23.40;79.10;;;;;;4188746;28;20122;-47
2023/09/06 06:32:30;;;;;;;7.80;6.50;;;23.50;78.50;;;;;;4188637;28;20123;-46
2023/09/06 06:35:12;;;;;;;;;;;23.50;78.70;;;;;;4189219;28;20055;-47
2023/09/06 06:37:53;;;;;;;6.85;6.20;;;23.50;78.70;;;;;;4187028;28;19931;-45
2023/09/06 06:40:36;;;;;;;7.47;6.80;;;23.40;78.90;;;;;;4185260;28;20052;-46
2023/09/06 06:43:18;;;;;;;7.47;6.70;;;23.50;79.20;;;;;;4187126;28;20560;-45
2023/09/06 06:45:59;;;;;;;6.55;5.88;;;23.50;79.40;;;;;;4187005;28;20063;-44
2023/09/06 06:48:40;;;;;;;6.45;5.78;;;23.50;79.40;;;;;;4179055;28;20511;-49
2023/09/06 06:51:22;;;;;;;;;;;23.50;79.80;;;;;;4188096;28;20514;-43
2023/09/06 06:54:03;;;;;;;7.65;5.47;;;23.60;80.40;;;;;;4180124;28;19927;-44
2023/09/06 06:56:44;;;;;;;6.55;5.93;;;23.60;80.90;;;;;;4187333;28;20059;-50
2023/09/06 06:59:25;;;;;;;;;;;23.60;81.40;;;;;;4189278;28;20060;-47
2023/09/06 07:02:09;;;;;;;6.80;5.57;;;23.60;81.40;;;;;;4187850;28;19928;-44
2023/09/06 07:04:50;;;;;;;7.18;6.10;;;23.60;81.60;;;;;;4187985;28;20047;-44
2023/09/06 07:07:33;;;;;;;7.32;6.18;;;23.60;81.50;;;;;;4187776;28;20051;-47
2023/09/06 07:10:14;;;;;;;8.13;5.72;;;23.60;81.40;;;;;;4188173;28;20391;-47
2023/09/06 07:12:56;;;;;;;8.73;5.95;;;23.60;81.40;;;;;;4184136;28;20130;-43
2023/09/06 07:15:37;;;;;;;;;;;23.60;81.50;;;;;;4186014;28;20151;-43
2023/09/06 07:18:18;;;;;;;10.70;5.90;;;23.70;81.50;;;;;;4187776;28;19927;-45
2023/09/06 07:20:59;;;;;;;8.10;6.47;;;23.70;81.60;;;;;;4187994;28;20085;-44
2023/09/06 07:23:42;;;;;;;8.13;6.40;;;23.70;81.50;;;;;;4186760;28;20047;-45
2023/09/06 07:26:23;;;;;;;8.30;5.82;;;23.70;81.40;;;;;;4187153;28;20113;-46
2023/09/06 07:29:05;;;;;;;10.02;5.95;;;23.80;81.20;;;;;;4187542;28;20593;-48
2023/09/06 07:31:46;;;;;;;9.45;6.45;;;23.80;81.20;;;;;;4187089;28;20445;-47
2023/09/06 07:34:27;;;;;;;13.07;6.10;;;23.90;81.20;;;;;;4187507;28;20056;-50
2023/09/06 07:37:09;;;;;;;8.73;5.28;;;23.90;81.10;;;;;;4185921;28;20194;-48
2023/09/06 07:39:51;;;;;;;7.53;5.97;;;24.00;81.10;;;;;;4186116;28;20055;-47
2023/09/06 07:42:32;;;;;;;7.75;5.95;;;24.00;81.00;;;;;;4176889;28;20503;-46
2023/09/06 07:45:14;;;;;;;11.98;5.95;;;24.10;81.00;;;;;;4185814;28;20169;-46
2023/09/06 07:47:55;;;;;;;6.03;5.22;;;24.10;81.10;;;;;;4187332;28;20419;-44
2023/09/06 07:50:36;;;;;;;7.72;5.50;;;24.10;81.20;;;;;;4185743;28;20055;-46
2023/09/06 07:53:17;;;;;;;6.72;5.00;;;24.20;81.30;;;;;;4186690;28;20526;-47
2023/09/06 07:55:59;;;;;;;6.10;5.20;;;24.20;81.10;;;;;;4184426;28;20510;-44
2023/09/06 07:58:41;;;;;;;5.63;4.82;;;24.20;80.70;;;;;;4170297;28;20052;-46
2023/09/06 08:01:22;;;;;;;;;;;24.30;80.40;;;;;;4183104;28;20410;-49
2023/09/06 08:04:06;;;;;;;;;;;24.30;80.40;;;;;;4187557;28;20066;-47
2023/09/06 08:06:47;;;;;;;4.50;4.03;;;24.30;80.40;;;;;;4185685;28;19927;-44
2023/09/06 08:09:28;;;;;;;5.07;3.97;;;24.30;80.60;;;;;;4186492;28;20050;-45
2023/09/06 08:12:10;;;;;;;4.72;4.32;;;24.40;80.70;;;;;;4186910;28;20064;-46
2023/09/06 08:14:51;;;;;;;4.45;3.78;;;24.40;80.50;;;;;;4186668;28;20079;-46
2023/09/06 08:17:32;;;;;;;3.72;3.45;;;24.50;80.10;;;;;;4185757;28;20407;-44
2023/09/06 08:20:14;;;;;;;5.82;3.90;;;24.50;80.00;;;;;;4184919;28;20083;-46
2023/09/06 08:22:55;;;;;;;;;;;24.50;79.80;;;;;;4187293;28;20056;-47
2023/09/06 08:25:35;;;;;;;4.63;3.50;;;24.50;79.60;;;;;;4186362;28;20391;-45
2023/09/06 08:28:18;;;;;;;;;;;24.60;79.60;;;;;;4187558;28;20412;-49
2023/09/06 08:31:01;;;;;;;6.20;3.90;;;24.60;79.70;;;;;;4186244;28;19927;-45
2023/09/06 08:33:42;;;;;;;4.20;3.72;;;24.60;79.60;;;;;;4183453;28;20056;-48
2023/09/06 08:36:23;;;;;;;;;;;24.70;79.70;;;;;;4190681;28;20055;-47
2023/09/06 08:39:06;;;;;;;3.33;3.03;;;24.70;79.70;;;;;;4190171;28;20394;-50
2023/09/06 08:41:49;;;;;;;2.85;2.65;;;24.70;79.70;;;;;;4180889;28;20404;-46
2023/09/06 08:44:33;;;;;;;3.45;2.83;;;24.70;79.90;;;;;;4189603;28;20189;-45
2023/09/06 08:47:18;;;;;;;3.13;2.92;;;24.80;80.00;;;;;;4189961;28;20060;-46
2023/09/06 08:50:00;;;;;;;3.15;2.95;;;24.90;80.00;;;;;;4189587;28;20415;-49
2023/09/06 08:52:43;;;;;;;3.45;2.63;;;24.90;79.80;;;;;;4173519;28;20064;-48
2023/09/06 08:55:25;;;;;;;4.57;2.67;;;25.00;79.70;;;;;;4173324;28;20415;-44
2023/09/06 08:58:06;;;;;;;;;;;25.00;79.30;;;;;;4174208;28;20503;-48
2023/09/06 09:00:48;;;;;;;3.75;2.33;;;25.00;78.90;;;;;;4173692;28;20339;-49
2023/09/06 09:03:29;;;;;;;2.60;2.00;;;25.10;79.00;;;;;;4173088;28;20064;-46
2023/09/06 09:06:11;;;;;;;2.50;2.30;;;25.10;78.10;;;;;;4180739;28;20067;-47
2023/09/06 09:08:52;;;;;;;2.50;2.30;;;25.10;76.90;;;;;;4188740;28;20051;-49
2023/09/06 09:11:33;;;;;;;3.15;2.13;;;25.20;76.50;;;;;;4189361;28;20052;-46
2023/09/06 09:14:22;;;;;;;2.13;1.77;;;25.20;76.20;;;;;;4188267;28;20555;-38
2023/09/06 09:17:04;;;;;;;2.55;2.38;;;25.30;76.30;;;;;;4173608;28;20507;-38
2023/09/06 09:19:49;;;;;;;3.40;2.15;;;25.30;76.20;;;;;;4172244;28;20060;-37
2023/09/06 09:22:33;;;;;;;2.90;2.13;;;25.30;75.70;;;;;;4173323;28;20102;-44
2023/09/06 09:25:15;;;;;;;2.08;1.73;;;25.30;75.40;;;;;;4172842;28;20052;-48
2023/09/06 09:27:57;;;;;;;3.83;2.30;;;25.40;76.20;;;;;;4173532;28;20052;-39
2023/09/06 09:30:39;;;;;;;2.55;2.20;;;25.40;74.60;;;;;;4172416;28;20211;-38
2023/09/06 09:33:28;;;;;;;4.05;2.15;;;25.40;74.90;;;;;;4172957;28;20835;-39
2023/09/06 09:36:09;;;;;;;3.17;2.10;;;25.50;74.40;;;;;;4182573;28;20059;-37
2023/09/06 09:38:50;;;;;;;2.15;2.03;;;25.50;73.50;;;;;;4172736;28;20052;-39
2023/09/06 09:41:32;;;;;;;2.50;2.03;;;25.50;72.60;;;;;;4183432;28;20052;-38
2023/09/06 09:44:20;;;;;;;2.80;2.47;;;25.60;72.50;;;;;;4188679;28;20075;-38
2023/09/06 09:47:11;;;;;;;2.35;2.13;;;25.60;72.70;;;;;;4187129;28;20054;-46
2023/09/06 09:50:13;;;;;;;2.17;1.98;;;25.60;72.10;;;;;;4182716;28;20069;-46
2023/09/06 09:52:54;;;;;;;3.20;2.28;;;25.70;72.30;;;;;;4188551;28;20129;-49
2023/09/06 09:55:41;;;;;;;4.88;2.38;;;25.70;72.00;;;;;;4188454;28;20494;-47
2023/09/06 09:58:23;;;;;;;4.30;2.30;;;25.70;71.20;;;;;;4187697;28;20063;-47
2023/09/06 10:01:05;;;;;;;2.20;1.98;;;25.80;70.90;;;;;;4188796;28;20071;-48
2023/09/06 10:03:49;;;;;;;2.25;2.15;;;25.80;71.20;;;;;;4188557;28;20055;-45
2023/09/06 10:06:33;;;;;;;2.70;1.90;;;25.80;71.00;;;;;;4188580;28;20167;-46
2023/09/06 10:09:17;;;;;;;2.58;2.38;;;25.90;70.90;;;;;;4188320;28;20113;-46
2023/09/06 10:12:01;;;;;;;4.20;2.33;;;25.90;71.40;;;;;;4189183;28;20043;-49
2023/09/06 10:14:43;;;;;;;2.20;2.00;;;25.90;71.40;;;;;;4188375;28;20411;-46
2023/09/06 10:17:24;;;;;;;2.35;2.08;;;26.00;71.10;;;;;;4187683;28;20060;-44
2023/09/06 10:20:12;;;;;;;2.85;2.20;;;26.00;70.70;;;;;;4188631;28;20070;-46
2023/09/06 10:22:57;;;;;;;2.72;2.60;;;26.10;70.90;;;;;;4170889;28;20074;-45
2023/09/06 10:25:41;;;;;;;4.80;2.17;;;26.10;70.70;;;;;;4179585;28;20071;-47
2023/09/06 10:28:25;;;;;;;1.92;1.83;;;26.10;69.70;;;;;;4172477;28;20168;-44
2023/09/06 10:31:09;;;;;;;2.40;2.08;;;26.20;68.70;;;;;;4180809;28;20055;-48
2023/09/06 10:33:59;;;;;;;3.08;2.40;;;26.20;69.00;;;;;;4188875;28;20494;-46
2023/09/06 10:36:51;;;;;;;3.33;2.30;;;26.30;68.40;;;;;;4188620;28;21509;-46
2023/09/06 10:39:34;;;;;;;3.25;2.42;;;26.30;68.00;;;;;;4188572;28;20064;-45
2023/09/06 10:42:17;;;;;;;4.63;2.40;;;26.40;68.40;;;;;;4189105;28;20526;-38
2023/09/06 10:45:15;;;;;;;2.20;2.10;;;26.40;67.70;;;;;;4186882;28;20105;-38
2023/09/06 10:48:10;;;;;;;3.50;2.03;;;26.50;67.10;;;;;;4187663;28;20154;-39
2023/09/06 10:51:06;;;;;;;3.17;1.90;;;26.50;67.60;;;;;;4171620;28;20071;-39
2023/09/06 10:53:49;;;;;;;3.53;2.28;;;26.50;66.70;;;;;;4182370;28;20115;-38
2023/09/06 10:56:32;;;;;;;3.17;2.00;;;26.60;67.20;;;;;;4183230;28;20611;-38
2023/09/06 10:59:20;;;;;;;4.07;2.25;;;26.60;67.00;;;;;;4173707;28;20408;-39
2023/09/06 11:02:09;;;;;;;3.22;2.22;;;26.70;66.40;;;;;;4180257;28;20043;-38
2023/09/06 11:05:03;;;;;;;2.53;2.33;;;26.70;66.70;;;;;;4187319;28;20048;-38
2023/09/06 11:07:46;;;;;;;7.10;2.03;;;26.80;67.40;;;;;;4181913;28;20407;-39
2023/09/06 11:10:31;;;;;;;2.13;2.03;;;26.80;65.70;;;;;;4171568;28;20408;-38
2023/09/06 11:13:15;;;;;;;2.03;1.92;;;26.80;65.50;;;;;;4171495;28;20055;-38
2023/09/06 11:15:56;;;;;;;3.75;2.00;;;26.80;65.30;;;;;;4171231;28;20060;-45
2023/09/06 11:18:43;;;;;;;;;;;26.90;65.50;;;;;;4172101;28;20126;-49
2023/09/06 11:21:25;;;;;;;2.38;2.13;;;26.90;65.50;;;;;;4171176;28;19931;-38
2023/09/06 11:24:06;;;;;;;;;;;26.90;65.80;;;;;;4182427;28;20076;-38
2023/09/06 11:26:47;;;;;;;2.45;2.00;;;27.00;65.90;;;;;;4175054;28;19928;-38
2023/09/06 11:29:30;;;;;;;1.92;1.85;;;27.00;65.70;;;;;;4187628;28;20585;-39
2023/09/06 11:32:12;;;;;;;2.15;2.03;;;27.00;66.00;;;;;;4187715;28;20051;-38
2023/09/06 11:34:53;;;;;;;1.80;1.58;;;27.00;66.30;;;;;;4185874;28;20051;-38
2023/09/06 11:37:37;;;;;;;1.67;1.58;;;27.10;66.10;;;;;;4186534;28;20150;-47
2023/09/06 11:40:20;;;;;;;3.30;1.77;;;27.10;65.20;;;;;;4187466;28;20085;-45
2023/09/06 11:43:05;;;;;;;1.73;1.63;;;27.10;65.20;;;;;;4186391;28;20133;-50
2023/09/06 11:45:50;;;;;;;1.80;1.70;;;27.20;65.20;;;;;;4187163;28;20161;-45
2023/09/06 11:48:34;;;;;;;3.45;1.83;;;27.20;65.00;;;;;;4170881;28;20128;-44
2023/09/06 11:51:18;;;;;;;2.33;1.98;;;27.20;65.40;;;;;;4171284;28;20048;-44
2023/09/06 11:54:00;;;;;;;3.53;2.10;;;27.20;65.40;;;;;;4170879;28;20071;-44
2023/09/06 11:56:47;;;;;;;1.80;1.70;;;27.30;65.30;;;;;;4185631;28;20062;-44
2023/09/06 11:59:32;;;;;;;3.03;1.50;;;27.30;65.40;;;;;;4187476;28;20052;-43
2023/09/06 12:02:14;;;;;;;1.50;1.40;;;27.30;65.70;;;;;;4187310;28;20052;-45
2023/09/06 12:05:00;;;;;;;1.60;1.50;;;27.40;66.10;;;;;;4187368;28;20538;-48
2023/09/06 12:07:43;;;;;;;1.90;1.80;;;27.40;66.10;;;;;;4171002;28;20052;-45
2023/09/06 12:10:26;;;;;;;2.53;1.70;;;27.40;65.90;;;;;;4171319;28;20060;-42
2023/09/06 12:13:09;;;;;;;2.60;1.73;;;27.50;66.00;;;;;;4185217;28;20051;-38
2023/09/06 12:15:51;;;;;;;2.20;1.65;;;27.50;65.50;;;;;;4186129;28;20097;-37
2023/09/06 12:18:35;;;;;;;1.63;1.52;;;27.50;64.40;;;;;;4187442;28;20052;-38
2023/09/06 12:21:16;;;;;;;1.63;1.52;;;27.60;64.90;;;;;;4186252;28;20598;-43
2023/09/06 12:23:59;;;;;;;3.13;1.92;;;27.60;63.90;;;;;;4187189;28;20506;-44
2023/09/06 12:26:39;;;;;;;1.80;1.70;;;27.70;64.30;;;;;;4186905;28;20507;-42
2023/09/06 12:29:21;;;;;;;1.77;1.67;;;27.70;64.40;;;;;;4186949;28;20063;-42
2023/09/06 12:32:04;;;;;;;1.50;1.50;;;27.70;64.00;;;;;;4186098;28;20056;-43
2023/09/06 12:34:47;;;;;;;1.88;1.77;;;27.80;63.40;;;;;;4186207;28;20395;-42
2023/09/06 12:37:28;;;;;;;2.00;1.50;;;27.80;63.40;;;;;;4182489;28;20076;-45
2023/09/06 12:40:13;;;;;;;1.67;1.58;;;27.80;63.10;;;;;;4186245;28;20070;-45
2023/09/06 12:42:54;;;;;;;1.42;1.42;;;27.80;62.00;;;;;;4187595;28;20059;-38
2023/09/06 12:45:35;;;;;;;2.38;1.83;;;27.80;62.20;;;;;;4187042;28;20093;-38
2023/09/06 12:48:17;;;;;;;2.95;1.90;;;27.90;62.90;;;;;;4187192;28;20055;-38
2023/09/06 12:51:00;;;;;;;1.65;1.55;;;27.90;62.80;;;;;;4184518;28;20391;-37
2023/09/06 12:53:41;;;;;;;2.35;1.40;;;27.90;62.70;;;;;;4170298;28;20048;-39
2023/09/06 12:56:22;;;;;;;2.08;1.63;;;27.90;63.00;;;;;;4169540;28;20056;-39
2023/09/06 12:59:04;;;;;;;1.80;1.70;;;28.00;63.70;;;;;;4182648;28;20129;-39
2023/09/06 13:01:45;;;;;;;2.20;1.65;;;28.00;63.60;;;;;;4186578;28;20055;-39
2023/09/06 13:04:26;;;;;;;3.35;1.52;;;28.10;64.30;;;;;;4186741;28;20066;-39
2023/09/06 13:07:09;;;;;;;2.47;1.58;;;28.10;63.40;;;;;;4186095;28;20044;-39
2023/09/06 13:09:50;;;;;;;3.17;1.80;;;28.10;62.90;;;;;;4186837;28;20511;-39
2023/09/06 13:12:30;;;;;;;;;;;28.20;62.70;;;;;;4184938;28;20111;-39
2023/09/06 13:15:11;;;;;;;2.05;1.88;;;28.20;62.90;;;;;;4186616;28;19932;-40
2023/09/06 13:17:53;;;;;;;2.45;1.52;;;28.30;63.20;;;;;;4185501;28;20079;-40
2023/09/06 13:20:34;;;;;;;2.67;1.60;;;28.30;63.00;;;;;;4186352;28;20062;-40
2023/09/06 13:23:17;;;;;;;1.70;1.60;;;28.30;62.80;;;;;;4189586;28;20067;-41
2023/09/06 13:25:59;;;;;;;1.85;1.38;;;28.30;62.50;;;;;;4189830;28;20047;-40
2023/09/06 13:28:40;;;;;;;1.73;1.33;;;28.30;62.30;;;;;;4190136;28;20087;-41
2023/09/06 13:31:21;;;;;;;1.50;1.40;;;28.40;62.40;;;;;;4189664;28;20194;-40
2023/09/06 13:34:02;;;;;;;;;;;28.40;62.30;;;;;;4190195;28;20126;-40
2023/09/06 13:36:42;;;;;;;5.35;2.13;;;28.40;62.40;;;;;;4188965;28;19930;-40
2023/09/06 13:39:25;;;;;;;2.33;1.40;;;28.40;62.10;;;;;;4189678;28;20052;-40
2023/09/06 13:42:06;;;;;;;1.70;1.40;;;28.50;63.10;;;;;;4187767;28;20052;-47
2023/09/06 13:44:47;;;;;;;1.48;1.45;;;28.50;62.60;;;;;;4188420;28;20047;-48
2023/09/06 13:47:28;;;;;;;1.70;1.60;;;28.50;62.40;;;;;;4188902;28;20059;-45
2023/09/06 13:50:10;;;;;;;1.38;1.30;;;28.50;62.30;;;;;;4189224;28;20483;-48
2023/09/06 13:52:51;;;;;;;1.90;1.23;;;28.50;61.80;;;;;;4188188;28;20056;-46
2023/09/06 13:55:33;;;;;;;2.72;1.45;;;28.60;62.20;;;;;;4189257;28;20059;-48
2023/09/06 13:58:14;;;;;;;1.45;1.35;;;28.60;62.30;;;;;;4189224;28;20055;-45
2023/09/06 14:00:55;;;;;;;;;;;28.60;61.60;;;;;;4189670;28;20479;-46
2023/09/06 14:03:37;;;;;;;2.88;1.27;;;28.70;61.60;;;;;;4189094;28;20019;-47
2023/09/06 14:06:19;;;;;;;2.25;1.58;;;28.70;61.60;;;;;;4184700;28;20056;-45
2023/09/06 14:09:00;;;;;;;1.38;1.27;;;28.70;61.60;;;;;;4188993;28;20113;-45
2023/09/06 14:11:42;;;;;;;3.33;1.55;;;28.70;61.80;;;;;;4189620;28;20604;-49